createdAt,value
2023-02-11T00:00:41.904Z,7.10
2023-02-11T00:03:10.684Z,7.20
2023-02-11T00:05:38.913Z,6.70
2023-02-11T00:08:08.454Z,7.60
2023-02-11T00:10:36.663Z,6.40
2023-02-11T00:13:04.823Z,6.00
2023-02-11T00:15:32.916Z,5.77
2023-02-11T00:18:00.982Z,5.77
2023-02-11T00:20:29.129Z,4.73
2023-02-11T00:22:57.290Z,6.30
2023-02-11T00:25:26.711Z,5.80
2023-02-11T00:27:54.791Z,6.40
2023-02-11T00:30:22.933Z,5.70
2023-02-11T00:32:51.038Z,5.50
2023-02-11T00:35:19.301Z,6.17
2023-02-11T00:37:47.392Z,5.20
2023-02-11T00:40:16.161Z,5.07
2023-02-11T00:42:45.626Z,4.97
2023-02-11T00:45:14.221Z,5.90
2023-02-11T00:47:42.300Z,5.53
2023-02-11T00:50:10.702Z,6.20
2023-02-11T00:52:38.831Z,4.73
2023-02-11T00:55:07.743Z,4.80
2023-02-11T00:57:35.846Z,5.07
2023-02-11T01:00:06.770Z,5.20
2023-02-11T01:02:34.916Z,5.63
2023-02-11T01:05:03.101Z,5.10
2023-02-11T01:07:31.260Z,4.43
2023-02-11T01:09:59.636Z,5.00
2023-02-11T01:12:27.773Z,5.03
2023-02-11T01:14:55.895Z,4.83
2023-02-11T01:17:25.395Z,5.97
2023-02-11T01:19:53.472Z,5.33
2023-02-11T01:22:21.581Z,3.70
2023-02-11T01:24:49.688Z,5.33
2023-02-11T01:27:17.783Z,4.47
2023-02-11T01:29:45.888Z,5.77
2023-02-11T01:32:14.062Z,5.53
2023-02-11T01:34:43.626Z,5.10
2023-02-11T01:37:11.759Z,5.27
2023-02-11T01:39:39.827Z,5.13
2023-02-11T01:42:07.987Z,4.27
2023-02-11T01:44:39.135Z,5.83
2023-02-11T01:47:07.858Z,4.80
2023-02-11T01:49:39.927Z,4.47
2023-02-11T01:52:13.585Z,4.33
2023-02-11T01:55:02.980Z,5.47
2023-02-11T01:57:34.262Z,4.17
2023-02-11T02:00:11.327Z,4.27
2023-02-11T02:02:45.339Z,3.90
2023-02-11T02:05:25.472Z,4.20
2023-02-11T02:08:01.681Z,4.20
2023-02-11T02:10:32.023Z,4.80
2023-02-11T02:13:00.063Z,4.17
2023-02-11T02:15:31.655Z,4.37
2023-02-11T02:18:03.866Z,3.57
2023-02-11T02:20:58.462Z,4.27
2023-02-11T02:23:44.743Z,4.60
2023-02-11T02:26:49.697Z,4.50
2023-02-11T02:29:54.298Z,4.30
2023-02-11T02:32:35.581Z,4.10
2023-02-11T02:35:12.158Z,4.57
2023-02-11T02:37:47.369Z,3.90
2023-02-11T02:40:19.352Z,4.07
2023-02-11T02:42:49.105Z,4.20
2023-02-11T02:45:17.510Z,4.13
2023-02-11T03:08:30.122Z,4.77
2023-02-11T03:10:59.497Z,4.90
2023-02-11T03:13:33.699Z,4.63
2023-02-11T03:16:08.279Z,6.10
2023-02-11T03:18:40.870Z,4.87
2023-02-11T03:21:10.787Z,4.80
2023-02-11T03:23:43.058Z,5.63
2023-02-11T03:26:22.425Z,5.67
2023-02-11T03:28:55.124Z,4.93
2023-02-11T03:31:30.602Z,5.33
2023-02-11T03:34:03.599Z,4.53
2023-02-11T03:36:41.047Z,5.57
2023-02-11T03:39:12.483Z,5.40
2023-02-11T03:41:42.297Z,4.80
2023-02-11T03:44:14.978Z,5.07
2023-02-11T03:46:48.049Z,5.23
2023-02-11T03:49:20.137Z,5.10
2023-02-11T03:51:49.367Z,5.60
2023-02-11T03:54:24.296Z,5.63
2023-02-11T04:00:34.809Z,5.73
2023-02-11T04:03:02.976Z,6.07
2023-02-11T04:05:31.031Z,6.30
2023-02-11T04:07:59.328Z,5.60
2023-02-11T04:10:28.821Z,6.63
2023-02-11T04:12:56.913Z,6.40
2023-02-11T04:15:25.641Z,6.13
2023-02-11T04:17:53.803Z,6.63
2023-02-11T04:20:22.344Z,5.67
2023-02-11T04:22:50.420Z,6.17
2023-02-11T04:25:18.675Z,6.00
2023-02-11T04:27:48.195Z,6.33
2023-02-11T04:30:16.271Z,5.60
2023-02-11T04:32:44.397Z,6.37
2023-02-11T04:35:12.471Z,6.53
2023-02-11T04:37:40.533Z,5.90
2023-02-11T04:40:09.521Z,6.47
2023-02-11T04:42:37.573Z,7.10
2023-02-11T04:45:08.260Z,6.20
2023-02-11T04:47:37.680Z,6.70
2023-02-11T04:50:06.582Z,6.53
2023-02-11T04:52:34.638Z,7.47
2023-02-11T04:55:02.706Z,8.00
2023-02-11T04:57:30.897Z,8.43
2023-02-11T04:59:58.932Z,7.90
2023-02-11T05:02:28.463Z,8.90
2023-02-11T05:04:56.558Z,8.00
2023-02-11T05:07:24.945Z,8.03
2023-02-11T05:09:53.062Z,7.83
2023-02-11T05:12:21.890Z,8.17
2023-02-11T05:14:49.923Z,8.10
2023-02-11T05:17:18.002Z,8.20
2023-02-11T05:19:47.424Z,7.83
2023-02-11T05:22:15.508Z,8.60
2023-02-11T05:24:43.638Z,7.87
2023-02-11T05:27:11.733Z,8.67
2023-02-11T05:29:40.030Z,7.40
2023-02-11T05:32:09.100Z,7.90
2023-02-11T05:34:37.222Z,9.03
2023-02-11T05:37:06.895Z,8.23
2023-02-11T05:39:35.054Z,8.33
2023-02-11T05:42:03.182Z,8.17
2023-02-11T05:44:31.286Z,8.57
2023-02-11T05:46:59.394Z,9.20
2023-02-11T05:49:27.604Z,9.37
2023-02-11T05:51:55.684Z,9.73
2023-02-11T05:54:25.149Z,9.40
2023-02-11T05:56:53.756Z,8.27
2023-02-11T05:59:21.850Z,9.23
2023-02-11T06:01:49.882Z,10.23
2023-02-11T06:04:17.920Z,8.97
2023-02-11T06:06:45.975Z,9.93
2023-02-11T06:09:14.066Z,9.27
2023-02-11T06:11:43.490Z,9.80
2023-02-11T06:14:12.130Z,9.73
2023-02-11T06:16:40.195Z,10.00
2023-02-11T06:19:08.354Z,10.03
2023-02-11T06:21:43.846Z,9.33
2023-02-11T06:24:12.636Z,8.97
2023-02-11T06:26:40.785Z,9.50
2023-02-11T06:29:10.378Z,9.23
2023-02-11T06:31:39.109Z,9.13
2023-02-11T06:34:07.639Z,9.63
2023-02-11T06:36:36.344Z,9.60
2023-02-11T06:39:05.415Z,10.63
2023-02-11T06:41:33.883Z,9.20
2023-02-11T06:44:02.005Z,10.97
2023-02-11T06:46:31.594Z,10.00
2023-02-11T06:48:59.771Z,10.30
2023-02-11T06:51:28.356Z,9.77
2023-02-11T06:53:56.493Z,10.80
2023-02-11T06:56:27.450Z,9.50
2023-02-11T06:58:56.638Z,10.80
2023-02-11T07:01:26.080Z,10.77
2023-02-11T07:03:55.848Z,9.70
2023-02-11T07:06:27.292Z,10.80
2023-02-11T07:08:56.477Z,10.40
2023-02-11T07:11:26.261Z,10.53
2023-02-11T07:13:55.681Z,11.00
2023-02-11T07:16:24.394Z,11.03
2023-02-11T07:18:52.588Z,11.83
2023-02-11T07:21:24.330Z,11.47
2023-02-11T07:23:53.298Z,11.70
2023-02-11T07:26:23.255Z,13.13
2023-02-11T07:28:52.147Z,11.53
2023-02-11T07:31:22.180Z,12.03
2023-02-11T07:33:52.695Z,11.40
2023-02-11T07:36:23.028Z,13.27
2023-02-11T07:38:51.589Z,12.10
2023-02-11T07:41:22.239Z,11.97
2023-02-11T07:43:50.863Z,12.37
2023-02-11T07:46:21.173Z,13.00
2023-02-11T07:48:49.530Z,12.20
2023-02-11T07:51:19.686Z,12.70
2023-02-11T07:53:49.274Z,11.87
2023-02-11T07:56:18.347Z,12.50
2023-02-11T07:58:46.793Z,13.90
2023-02-11T08:01:16.787Z,12.80
2023-02-11T08:03:45.148Z,12.87
2023-02-11T08:06:15.342Z,13.20
2023-02-11T08:08:44.756Z,12.87
2023-02-11T08:11:16.830Z,13.70
2023-02-11T08:13:45.576Z,13.20
2023-02-11T08:16:20.852Z,14.23
2023-02-11T08:18:49.752Z,15.43
2023-02-11T08:21:18.442Z,15.53
2023-02-11T08:23:47.505Z,13.73
2023-02-11T08:26:19.110Z,13.00
2023-02-11T08:28:48.806Z,14.90
2023-02-11T08:31:20.250Z,14.40
2023-02-11T08:33:48.623Z,14.90
2023-02-11T08:36:18.956Z,16.47
2023-02-11T08:38:48.160Z,15.87
2023-02-11T08:41:18.859Z,18.10
2023-02-11T08:43:47.268Z,17.83
2023-02-11T08:46:17.996Z,17.27
2023-02-11T08:48:47.340Z,19.53
2023-02-11T08:51:18.590Z,18.43
2023-02-11T08:53:46.961Z,19.83
2023-02-11T08:56:17.297Z,21.00
2023-02-11T08:58:45.378Z,19.87
2023-02-11T09:01:15.200Z,19.77
2023-02-11T09:03:43.340Z,19.53
2023-02-11T09:06:12.771Z,18.67
2023-02-11T09:08:46.458Z,19.63
2023-02-11T09:11:15.186Z,20.17
2023-02-11T09:13:46.992Z,19.37
2023-02-11T09:16:20.195Z,17.70
2023-02-11T09:18:48.959Z,18.17
2023-02-11T09:21:19.134Z,18.47
2023-02-11T09:23:48.068Z,20.53
2023-02-11T09:26:19.089Z,19.30
2023-02-11T09:28:49.085Z,18.93
2023-02-11T09:31:18.485Z,17.97
2023-02-11T09:33:48.932Z,19.43
2023-02-11T09:36:18.827Z,18.67
2023-02-11T09:38:47.735Z,19.03
2023-02-11T09:41:34.592Z,19.30
2023-02-11T09:44:07.263Z,19.03
2023-02-11T09:46:39.017Z,20.53
2023-02-11T09:49:08.847Z,19.87
2023-02-11T09:51:43.618Z,18.40
2023-02-11T09:54:18.189Z,19.40
2023-02-11T09:56:46.388Z,18.43
2023-02-11T09:59:18.718Z,19.30
2023-02-11T10:01:50.546Z,19.00
2023-02-11T10:04:32.241Z,19.23
2023-02-11T10:07:08.994Z,17.60
2023-02-11T10:09:51.880Z,19.67
2023-02-11T10:12:31.126Z,18.97
2023-02-11T10:15:16.602Z,17.90
2023-02-11T10:17:54.897Z,18.00
2023-02-11T10:20:32.773Z,18.60
2023-02-11T10:23:03.008Z,17.90
2023-02-11T10:25:38.295Z,16.93
2023-02-11T10:28:14.457Z,16.73
2023-02-11T10:30:47.775Z,16.63
2023-02-11T10:33:25.525Z,18.00
2023-02-11T10:35:53.744Z,16.33
2023-02-11T10:38:21.872Z,16.67
2023-02-11T10:40:50.198Z,16.60
2023-02-11T10:43:20.728Z,16.07
2023-02-11T10:45:51.474Z,16.17
2023-02-11T10:48:39.052Z,15.17
2023-02-11T10:51:17.776Z,15.73
2023-02-11T10:53:46.384Z,15.23
2023-02-11T10:56:23.755Z,14.73
2023-02-11T10:59:01.386Z,13.47
2023-02-11T11:01:43.341Z,14.77
2023-02-11T11:04:35.124Z,13.60
2023-02-11T11:07:14.570Z,14.00
2023-02-11T11:09:51.837Z,14.33
2023-02-11T11:12:34.758Z,14.17
2023-02-11T11:15:16.443Z,12.73
2023-02-11T11:17:46.022Z,12.43
2023-02-11T11:20:22.573Z,11.60
2023-02-11T11:22:53.561Z,12.57
2023-02-11T11:25:27.947Z,12.77
2023-02-11T11:27:58.952Z,12.40
2023-02-11T11:30:32.801Z,12.03
2023-02-11T11:33:03.028Z,11.60
2023-02-11T11:35:33.990Z,12.63
2023-02-11T11:38:05.379Z,12.50
2023-02-11T11:40:35.725Z,12.67
2023-02-11T11:43:08.309Z,12.33
2023-02-11T11:45:36.479Z,12.43
2023-02-11T11:48:15.025Z,13.07
2023-02-11T11:50:45.366Z,11.57
2023-02-11T11:53:17.722Z,12.30
2023-02-11T11:55:49.184Z,12.43
2023-02-11T11:58:19.569Z,11.40
2023-02-11T12:00:57.902Z,10.57
2023-02-11T12:04:04.599Z,11.50
2023-02-11T12:06:45.555Z,10.43
2023-02-11T12:09:24.601Z,10.70
2023-02-11T12:12:20.877Z,10.93
2023-02-11T12:14:57.155Z,10.80
2023-02-11T12:17:45.817Z,11.73
2023-02-11T12:20:23.827Z,10.10
2023-02-11T12:23:04.467Z,10.63
2023-02-11T12:25:40.126Z,11.10
2023-02-11T12:28:26.238Z,10.37
2023-02-11T12:31:19.324Z,10.40
2023-02-11T12:34:14.885Z,9.60
2023-02-11T12:36:57.528Z,9.50
2023-02-11T12:39:36.336Z,9.03
2023-02-11T12:43:02.787Z,9.70
2023-02-11T12:45:48.754Z,9.80
2023-02-11T12:48:35.914Z,9.00
2023-02-11T12:51:13.104Z,9.67
2023-02-11T12:53:50.886Z,9.17
2023-02-11T12:56:25.662Z,10.57
2023-02-11T12:58:57.904Z,10.10
2023-02-11T13:01:30.402Z,9.63
2023-02-11T13:04:08.498Z,10.37
2023-02-11T13:06:41.467Z,9.20
2023-02-11T13:09:18.801Z,9.53
2023-02-11T13:11:52.888Z,9.83
2023-02-11T13:14:27.329Z,9.03
2023-02-11T13:16:58.134Z,9.70
2023-02-11T13:19:32.376Z,9.67
2023-02-11T13:22:09.747Z,8.57
2023-02-11T13:24:45.591Z,8.87
2023-02-11T13:27:30.927Z,9.03
2023-02-11T13:30:14.776Z,9.23
2023-02-11T13:33:28.514Z,9.00
2023-02-11T13:36:26.597Z,8.43
2023-02-11T13:39:08.018Z,8.93
2023-02-11T13:41:41.901Z,8.80
2023-02-11T13:44:26.202Z,9.77
2023-02-11T13:47:01.365Z,8.33
2023-02-11T13:49:35.381Z,8.73
2023-02-11T13:52:05.931Z,8.90
2023-02-11T13:54:36.610Z,7.93
2023-02-11T13:57:26.351Z,9.50
2023-02-11T13:59:56.991Z,9.40
2023-02-11T14:02:46.001Z,8.87
2023-02-11T14:05:49.667Z,8.70
2023-02-11T14:08:44.392Z,8.53
2023-02-11T14:11:44.814Z,8.90
2023-02-11T14:14:21.889Z,8.90
2023-02-11T14:28:34.913Z,8.20
2023-02-11T14:31:10.693Z,8.70
2023-02-11T14:34:01.821Z,8.60
2023-02-11T14:36:51.950Z,8.40
2023-02-11T14:39:29.493Z,9.40
2023-02-11T14:41:58.327Z,9.03
2023-02-11T14:44:31.065Z,9.77
2023-02-11T14:46:59.511Z,9.17
2023-02-11T14:49:30.891Z,9.93
2023-02-11T14:52:07.251Z,9.73
2023-02-11T14:54:35.947Z,8.57
2023-02-11T14:57:09.135Z,9.07
2023-02-11T14:59:38.869Z,8.77
2023-02-11T15:02:23.154Z,9.80
2023-02-11T15:04:51.320Z,9.40
2023-02-11T15:07:19.906Z,9.97
2023-02-11T15:09:51.356Z,9.97
2023-02-11T15:12:25.051Z,8.83
2023-02-11T15:14:56.560Z,10.57
2023-02-11T15:17:29.846Z,9.63
2023-02-11T15:20:01.539Z,9.93
2023-02-11T15:22:33.098Z,10.13
2023-02-11T15:25:03.934Z,10.63
2023-02-11T15:27:40.694Z,10.63
2023-02-11T15:30:26.396Z,10.30
2023-02-11T15:32:58.809Z,10.53
2023-02-11T15:35:29.698Z,8.73
2023-02-11T15:37:59.152Z,9.70
2023-02-11T15:40:32.414Z,9.60
2023-02-11T15:43:02.815Z,10.33
2023-02-11T15:45:34.460Z,10.67
2023-02-11T15:48:10.635Z,11.53
2023-02-11T15:50:40.945Z,12.43
2023-02-11T15:53:24.356Z,10.73
2023-02-11T15:55:55.354Z,11.50
2023-02-11T15:58:24.930Z,12.10
2023-02-11T16:00:59.759Z,10.67
2023-02-11T16:03:33.061Z,11.93
2023-02-11T16:06:16.996Z,11.43
2023-02-11T16:08:58.263Z,11.53
2023-02-11T16:11:30.491Z,11.80
2023-02-11T16:14:00.318Z,11.53
2023-02-11T16:16:33.335Z,12.57
2023-02-11T16:19:05.813Z,12.20
2023-02-11T16:21:39.241Z,12.50
2023-02-11T16:24:09.369Z,12.23
2023-02-11T16:26:43.249Z,12.07
2023-02-11T16:29:14.497Z,12.27
2023-02-11T16:31:46.066Z,11.27
2023-02-11T16:34:16.406Z,12.13
2023-02-11T16:36:44.536Z,13.30
2023-02-11T16:39:13.012Z,12.23
2023-02-11T16:41:41.315Z,12.50
2023-02-11T16:44:09.620Z,12.53
2023-02-11T16:46:38.792Z,14.93
2023-02-11T16:49:12.514Z,14.57
2023-02-11T16:51:42.595Z,14.37
2023-02-11T16:54:16.175Z,13.57
2023-02-11T16:56:44.861Z,14.50
2023-02-11T16:59:13.490Z,14.87
2023-02-11T17:01:43.345Z,15.27
2023-02-11T17:04:18.641Z,14.33
2023-02-11T17:06:48.216Z,15.30
2023-02-11T17:09:20.900Z,14.30
2023-02-11T17:11:49.693Z,15.20
2023-02-11T17:14:18.187Z,15.17
2023-02-11T17:16:47.773Z,14.77
2023-02-11T17:19:22.029Z,14.30
2023-02-11T17:21:54.463Z,15.57
2023-02-11T17:24:23.376Z,14.67
2023-02-11T17:26:51.979Z,14.27
2023-02-11T17:29:22.766Z,15.10
2023-02-11T17:31:51.779Z,15.03
2023-02-11T17:34:22.543Z,14.87
2023-02-11T17:36:50.842Z,13.70
2023-02-11T17:39:19.335Z,15.03
2023-02-11T17:41:47.635Z,14.83
2023-02-11T17:44:16.506Z,15.67
2023-02-11T17:46:45.191Z,14.67
2023-02-11T17:49:13.329Z,14.70
2023-02-11T17:51:42.790Z,13.47
2023-02-11T17:54:14.302Z,13.90
2023-02-11T17:56:43.024Z,16.03
2023-02-11T17:59:12.964Z,15.53
2023-02-11T18:01:42.757Z,14.17
2023-02-11T18:04:14.867Z,14.47
2023-02-11T18:06:44.995Z,14.43
2023-02-11T18:09:13.406Z,14.77
2023-02-11T18:11:42.156Z,14.37
2023-02-11T18:14:11.716Z,14.30
2023-02-11T18:16:43.117Z,14.37
2023-02-11T18:19:11.802Z,13.17
2023-02-11T18:21:39.887Z,14.90
2023-02-11T18:24:09.354Z,15.27
2023-02-11T18:26:37.834Z,15.33
2023-02-11T18:29:07.046Z,14.80
2023-02-11T18:47:00.640Z,14.13
2023-02-11T18:49:28.824Z,15.43
2023-02-11T18:51:58.659Z,14.93
2023-02-11T18:54:26.757Z,13.50
2023-02-11T18:56:54.856Z,14.63
2023-02-11T18:59:22.875Z,14.33
2023-02-11T19:01:51.813Z,14.03
2023-02-11T19:04:21.305Z,13.50
2023-02-11T19:06:50.371Z,13.00
2023-02-11T19:09:20.692Z,13.77
2023-02-11T19:11:49.780Z,14.00
2023-02-11T19:14:20.999Z,13.17
2023-02-11T19:16:51.337Z,15.00
2023-02-11T19:19:22.256Z,13.83
2023-02-11T19:21:50.642Z,14.63
2023-02-11T19:24:20.005Z,14.23
2023-02-11T19:26:49.465Z,14.87
2023-02-11T19:29:17.719Z,13.47
2023-02-11T19:31:46.535Z,13.13
2023-02-11T19:34:17.499Z,13.90
2023-02-11T19:36:47.461Z,12.93
2023-02-11T19:39:15.631Z,12.13
2023-02-11T19:41:44.704Z,13.40
2023-02-11T19:44:15.172Z,12.23
2023-02-11T19:46:43.490Z,12.57
2023-02-11T19:49:15.461Z,13.13
2023-02-11T19:51:43.593Z,11.83
2023-02-11T19:54:13.205Z,12.60
2023-02-11T19:56:41.235Z,13.40
2023-02-11T19:59:09.365Z,12.03
2023-02-11T20:01:37.882Z,12.50
2023-02-11T20:04:06.388Z,12.53
2023-02-11T20:06:36.199Z,11.83
2023-02-11T20:09:07.982Z,12.37
2023-02-11T20:11:38.516Z,12.73
2023-02-11T20:14:07.651Z,11.33
2023-02-11T20:16:47.404Z,12.40
2023-02-11T20:19:18.457Z,11.33
2023-02-11T20:21:48.238Z,10.60
2023-02-11T20:24:16.680Z,11.80
2023-02-11T20:26:48.152Z,11.13
2023-02-11T20:29:17.184Z,10.80
2023-02-11T20:31:45.669Z,10.97
2023-02-11T20:34:13.976Z,12.17
2023-02-11T20:36:42.427Z,10.93
2023-02-11T20:39:17.154Z,11.63
2023-02-11T20:49:28.625Z,11.63
2023-02-11T20:51:58.451Z,12.43
2023-02-11T20:54:27.017Z,11.57
2023-02-11T20:56:56.797Z,11.03
2023-02-11T20:59:25.217Z,12.33
2023-02-11T21:01:55.830Z,13.10
2023-02-11T21:04:26.172Z,12.23
2023-02-11T21:06:58.194Z,14.60
2023-02-11T21:09:28.878Z,12.83
2023-02-11T21:11:57.072Z,13.43
2023-02-11T21:14:26.325Z,13.37
2023-02-11T21:16:54.846Z,11.57
2023-02-11T21:19:23.021Z,11.63
2023-02-11T21:21:51.279Z,11.53
2023-02-11T21:24:20.780Z,12.97
2023-02-11T21:26:48.914Z,11.47
2023-02-11T21:29:17.129Z,10.50
2023-02-11T21:31:45.456Z,12.10
2023-02-11T21:34:14.311Z,11.97
2023-02-11T21:36:42.586Z,11.80
2023-02-11T21:39:10.736Z,11.57
2023-02-11T21:41:40.211Z,11.87
2023-02-11T21:44:08.305Z,12.60
2023-02-11T21:46:36.505Z,12.17
2023-02-11T21:49:04.659Z,13.20
2023-02-11T21:51:32.772Z,14.47
2023-02-11T21:54:02.472Z,14.67
2023-02-11T21:56:31.573Z,12.20
2023-02-11T21:59:03.148Z,11.43
2023-02-11T22:01:32.935Z,11.17
2023-02-11T22:04:01.386Z,11.37
2023-02-11T22:06:31.728Z,11.97
2023-02-11T22:09:02.706Z,11.47
2023-02-11T22:11:30.838Z,11.10
2023-02-11T22:14:00.719Z,11.00
2023-02-11T22:16:29.947Z,11.20
2023-02-11T22:26:30.214Z,11.83
2023-02-11T22:28:58.617Z,11.60
2023-02-11T22:31:30.014Z,12.37
2023-02-11T22:33:58.496Z,11.90
2023-02-11T22:36:28.950Z,13.17
2023-02-11T22:38:57.582Z,11.87
2023-02-11T22:41:25.698Z,11.73
2023-02-11T22:43:53.772Z,10.60
2023-02-11T22:46:22.219Z,11.93
2023-02-11T22:48:52.456Z,11.77
2023-02-11T22:51:23.045Z,11.30
2023-02-11T22:53:52.604Z,10.80
2023-02-11T22:56:21.289Z,11.47
2023-02-11T22:58:49.837Z,11.67
2023-02-11T23:01:18.458Z,11.50
2023-02-11T23:03:46.859Z,11.00
2023-02-11T23:06:16.604Z,11.80
2023-02-11T23:08:45.440Z,12.13
2023-02-11T23:11:15.820Z,10.57
2023-02-11T23:13:45.488Z,10.87
2023-02-11T23:16:16.263Z,11.70
2023-02-11T23:18:45.585Z,11.17
2023-02-11T23:21:17.368Z,11.10
2023-02-11T23:23:46.019Z,11.40
2023-02-11T23:26:15.667Z,11.23
2023-02-11T23:28:45.981Z,11.73
2023-02-11T23:31:16.224Z,11.53
2023-02-11T23:33:44.925Z,10.90
2023-02-11T23:36:13.355Z,10.73
2023-02-11T23:38:43.272Z,11.30
2023-02-11T23:41:12.165Z,11.60
2023-02-11T23:43:40.599Z,11.70
2023-02-11T23:46:09.649Z,12.17
2023-02-11T23:48:38.663Z,11.70
2023-02-11T23:51:07.507Z,11.53
2023-02-11T23:53:35.663Z,11.80
2023-02-11T23:56:08.324Z,12.13
2023-02-11T23:58:36.471Z,11.93
